createdAt,value
2018-05-06T00:01:55.888Z,75.70
2018-05-06T00:04:23.344Z,75.90
2018-05-06T00:06:50.793Z,76.00
2018-05-06T00:09:18.245Z,76.00
2018-05-06T00:11:45.704Z,76.10
2018-05-06T00:14:13.172Z,76.20
2018-05-06T00:16:40.641Z,76.40
2018-05-06T00:19:08.085Z,76.50
2018-05-06T00:21:35.548Z,76.50
2018-05-06T00:24:03.030Z,76.70
2018-05-06T00:26:30.496Z,76.90
2018-05-06T00:28:57.982Z,77.00
2018-05-06T00:31:25.447Z,77.10
2018-05-06T00:33:52.895Z,77.30
2018-05-06T00:36:20.400Z,77.40
2018-05-06T00:38:47.832Z,77.40
2018-05-06T00:41:15.281Z,77.40
2018-05-06T00:43:42.744Z,77.70
2018-05-06T00:46:10.181Z,77.60
2018-05-06T00:48:37.634Z,77.60
2018-05-06T00:51:05.496Z,77.90
2018-05-06T00:53:32.960Z,78.20
2018-05-06T00:56:00.434Z,78.20
2018-05-06T00:58:27.861Z,78.20
2018-05-06T01:00:55.365Z,78.20
2018-05-06T01:03:22.804Z,78.30
2018-05-06T01:05:50.265Z,78.50
2018-05-06T01:08:17.712Z,78.60
2018-05-06T01:10:45.181Z,78.80
2018-05-06T01:13:12.639Z,79.00
2018-05-06T01:15:40.096Z,79.10
2018-05-06T01:18:07.541Z,79.20
2018-05-06T01:20:35.010Z,79.40
2018-05-06T01:23:02.452Z,79.50
2018-05-06T01:25:29.909Z,79.60
2018-05-06T01:27:57.402Z,79.50
2018-05-06T01:30:24.856Z,79.50
2018-05-06T01:32:52.337Z,79.70
2018-05-06T01:35:20.558Z,79.40
2018-05-06T01:37:48.051Z,79.80
2018-05-06T01:40:15.505Z,80.00
2018-05-06T01:42:42.965Z,80.10
2018-05-06T01:45:10.409Z,80.20
2018-05-06T01:47:37.866Z,80.40
2018-05-06T01:50:05.309Z,80.60
2018-05-06T01:52:32.772Z,80.60
2018-05-06T01:55:00.221Z,80.60
2018-05-06T01:57:27.675Z,80.70
2018-05-06T01:59:55.145Z,80.80
2018-05-06T02:02:22.593Z,81.00
2018-05-06T02:04:50.058Z,81.00
2018-05-06T02:07:17.501Z,81.00
2018-05-06T02:09:44.972Z,81.10
2018-05-06T02:12:12.420Z,81.30
2018-05-06T02:14:39.887Z,81.30
2018-05-06T02:17:07.356Z,81.40
2018-05-06T02:19:34.840Z,81.60
2018-05-06T02:22:03.067Z,82.00
2018-05-06T02:24:30.513Z,81.90
2018-05-06T02:26:57.985Z,81.90
2018-05-06T02:29:25.440Z,81.90
2018-05-06T02:31:52.931Z,81.90
2018-05-06T02:34:20.872Z,81.90
2018-05-06T02:36:48.357Z,81.90
2018-05-06T02:39:15.853Z,82.00
2018-05-06T02:41:43.313Z,82.10
2018-05-06T02:44:10.796Z,82.30
2018-05-06T02:46:38.271Z,82.40
2018-05-06T02:49:05.804Z,82.40
2018-05-06T02:51:33.256Z,82.50
2018-05-06T02:54:00.737Z,82.50
2018-05-06T02:56:28.196Z,82.60
2018-05-06T02:58:56.431Z,82.90
2018-05-06T03:01:23.908Z,82.80
2018-05-06T03:03:51.397Z,82.90
2018-05-06T03:06:18.881Z,83.00
2018-05-06T03:08:46.364Z,83.00
2018-05-06T03:11:13.821Z,83.00
2018-05-06T03:13:41.300Z,83.00
2018-05-06T03:16:08.756Z,83.10
2018-05-06T03:18:36.241Z,83.20
2018-05-06T03:21:03.694Z,83.20
2018-05-06T03:23:31.173Z,83.20
2018-05-06T03:25:58.667Z,83.40
2018-05-06T03:28:26.124Z,83.40
2018-05-06T03:30:53.588Z,83.40
2018-05-06T03:33:21.069Z,83.40
2018-05-06T03:35:48.556Z,83.40
2018-05-06T03:38:16.017Z,83.40
2018-05-06T03:40:43.472Z,83.60
2018-05-06T03:43:10.962Z,83.60
2018-05-06T03:45:38.419Z,83.70
2018-05-06T03:48:06.684Z,83.80
2018-05-06T03:50:34.956Z,83.70
2018-05-06T03:53:02.452Z,83.70
2018-05-06T03:55:29.973Z,83.70
2018-05-06T03:58:09.983Z,84.00
2018-05-06T04:00:41.540Z,84.00
2018-05-06T04:03:09.000Z,84.00
2018-05-06T04:05:38.005Z,84.10
2018-05-06T04:08:05.461Z,84.20
2018-05-06T04:10:32.934Z,84.20
2018-05-06T04:13:01.169Z,84.20
2018-05-06T04:15:28.653Z,84.30
2018-05-06T04:17:56.120Z,84.40
2018-05-06T04:20:23.592Z,84.40
2018-05-06T04:22:51.843Z,84.50
2018-05-06T04:25:19.312Z,84.50
2018-05-06T04:27:47.632Z,84.70
2018-05-06T04:30:15.968Z,84.60
2018-05-06T04:32:44.305Z,84.80
2018-05-06T04:35:11.765Z,84.80
2018-05-06T04:37:39.260Z,85.00
2018-05-06T04:40:07.488Z,85.20
2018-05-06T04:42:34.985Z,85.20
2018-05-06T04:45:02.448Z,85.30
2018-05-06T04:47:30.732Z,85.60
2018-05-06T04:49:58.190Z,85.50
2018-05-06T04:52:26.440Z,85.70
2018-05-06T04:54:53.907Z,85.70
2018-05-06T04:57:21.401Z,85.80
2018-05-06T04:59:48.865Z,86.10
2018-05-06T05:02:16.305Z,86.30
2018-05-06T05:04:43.788Z,86.30
2018-05-06T05:07:11.254Z,86.40
2018-05-06T05:09:38.796Z,86.40
2018-05-06T05:12:07.005Z,87.00
2018-05-06T05:14:34.476Z,87.00
2018-05-06T05:17:01.950Z,87.20
2018-05-06T05:19:30.208Z,87.50
2018-05-06T05:21:57.665Z,87.50
2018-05-06T05:24:25.168Z,87.80
2018-05-06T05:26:52.600Z,87.90
2018-05-06T05:29:20.168Z,88.20
2018-05-06T05:31:47.624Z,88.30
2018-05-06T05:34:15.101Z,88.40
2018-05-06T05:36:42.579Z,88.80
2018-05-06T05:39:10.113Z,88.80
2018-05-06T05:41:37.592Z,88.90
2018-05-06T05:44:05.053Z,88.70
2018-05-06T05:46:33.303Z,88.50
2018-05-06T05:49:00.753Z,88.40
2018-05-06T05:51:28.197Z,88.00
2018-05-06T05:53:55.676Z,87.80
2018-05-06T05:56:23.156Z,87.40
2018-05-06T05:58:50.636Z,86.90
2018-05-06T06:01:18.113Z,86.10
2018-05-06T06:03:46.324Z,84.80
2018-05-06T06:06:13.804Z,84.70
2018-05-06T06:08:41.300Z,84.40
2018-05-06T06:11:09.590Z,83.40
2018-05-06T06:13:37.856Z,83.00
2018-05-06T06:16:06.067Z,82.50
2018-05-06T06:18:33.564Z,82.50
2018-05-06T06:21:01.048Z,82.00
2018-05-06T06:23:28.514Z,80.80
2018-05-06T06:25:55.960Z,80.50
2018-05-06T06:28:24.202Z,80.20
2018-05-06T06:30:51.676Z,80.20
2018-05-06T06:33:19.168Z,79.10
2018-05-06T06:35:46.625Z,78.50
2018-05-06T06:38:14.140Z,78.00
2018-05-06T06:40:41.593Z,75.80
2018-05-06T06:43:09.056Z,75.70
2018-05-06T06:45:36.538Z,75.60
2018-05-06T06:48:04.072Z,75.40
2018-05-06T06:50:32.204Z,73.10
2018-05-06T06:52:59.711Z,73.20
2018-05-06T06:55:27.184Z,73.00
2018-05-06T06:57:55.429Z,71.90
2018-05-06T07:00:22.900Z,71.90
2018-05-06T07:02:50.356Z,70.90
2018-05-06T07:05:17.843Z,70.50
2018-05-06T07:07:45.325Z,68.90
2018-05-06T07:10:12.780Z,67.80
2018-05-06T07:12:40.280Z,66.80
2018-05-06T07:15:07.735Z,66.20
2018-05-06T07:17:35.204Z,66.10
2018-05-06T07:20:03.448Z,63.70
2018-05-06T07:22:30.919Z,63.70
2018-05-06T07:24:58.384Z,63.20
2018-05-06T07:27:25.833Z,62.50
2018-05-06T07:29:53.338Z,62.50
2018-05-06T07:32:21.536Z,62.30
2018-05-06T07:34:48.986Z,62.30
2018-05-06T07:37:16.457Z,60.80
2018-05-06T07:39:43.908Z,61.10
2018-05-06T07:42:11.400Z,60.70
2018-05-06T07:44:38.860Z,60.90
2018-05-06T07:47:06.325Z,60.50
2018-05-06T07:49:33.792Z,59.50
2018-05-06T07:52:02.020Z,57.90
2018-05-06T07:54:29.504Z,57.90
2018-05-06T07:56:56.980Z,57.90
2018-05-06T07:59:25.232Z,57.80
2018-05-06T08:01:52.676Z,57.70
2018-05-06T08:04:20.151Z,57.30
2018-05-06T08:06:47.616Z,55.80
2018-05-06T08:09:15.067Z,55.50
2018-05-06T08:11:42.548Z,54.80
2018-05-06T08:14:10.012Z,54.70
2018-05-06T08:16:37.524Z,54.00
2018-05-06T08:19:04.948Z,54.90
2018-05-06T08:21:32.396Z,53.90
2018-05-06T08:23:59.872Z,53.10
2018-05-06T08:26:28.135Z,52.70
2018-05-06T08:28:55.604Z,52.70
2018-05-06T08:31:23.078Z,50.90
2018-05-06T08:33:50.557Z,50.30
2018-05-06T08:36:18.000Z,50.90
2018-05-06T08:38:45.477Z,50.10
2018-05-06T08:41:13.713Z,49.80
2018-05-06T08:43:41.193Z,49.70
2018-05-06T08:46:08.672Z,48.30
2018-05-06T08:48:36.892Z,47.60
2018-05-06T08:51:04.344Z,47.50
2018-05-06T08:53:31.827Z,46.90
2018-05-06T08:56:00.173Z,44.80
2018-05-06T08:58:27.620Z,44.70
2018-05-06T09:00:55.116Z,44.90
2018-05-06T09:03:22.660Z,43.90
2018-05-06T09:05:50.109Z,44.10
2018-05-06T09:08:17.591Z,43.30
2018-05-06T09:10:45.045Z,43.10
2018-05-06T09:13:12.517Z,43.40
2018-05-06T09:15:40.006Z,41.50
2018-05-06T09:18:08.224Z,40.20
2018-05-06T09:20:35.708Z,40.10
2018-05-06T09:23:03.161Z,39.00
2018-05-06T09:25:30.725Z,38.10
2018-05-06T09:27:58.152Z,37.20
2018-05-06T09:30:25.645Z,36.70
2018-05-06T09:32:53.093Z,36.60
2018-05-06T09:35:20.580Z,36.10
2018-05-06T09:37:48.840Z,33.50
2018-05-06T09:40:16.269Z,33.30
2018-05-06T09:42:43.737Z,32.60
2018-05-06T09:45:11.288Z,32.00
2018-05-06T09:47:38.826Z,31.10
2018-05-06T09:50:06.273Z,30.50
2018-05-06T09:52:33.731Z,31.80
2018-05-06T09:55:01.214Z,31.40
2018-05-06T09:57:28.681Z,31.20
2018-05-06T09:59:56.896Z,31.20
2018-05-06T10:02:24.369Z,30.40
2018-05-06T10:04:52.682Z,30.60
2018-05-06T10:07:20.333Z,30.50
2018-05-06T10:09:47.805Z,30.00
2018-05-06T10:12:15.308Z,28.90
2018-05-06T10:14:43.529Z,28.00
2018-05-06T10:17:10.996Z,27.90
2018-05-06T10:19:38.473Z,28.20
2018-05-06T10:22:05.959Z,27.60
2018-05-06T10:24:33.417Z,27.70
2018-05-06T10:27:01.672Z,27.90
2018-05-06T10:29:29.152Z,27.80
2018-05-06T10:31:58.315Z,27.80
2018-05-06T10:34:25.782Z,27.80
2018-05-06T10:36:53.312Z,28.50
2018-05-06T10:39:20.784Z,29.10
2018-05-06T10:41:48.239Z,29.00
2018-05-06T10:44:15.758Z,27.90
2018-05-06T10:46:43.196Z,27.70
2018-05-06T10:49:10.732Z,27.40
2018-05-06T10:51:38.137Z,27.00
2018-05-06T10:54:05.589Z,27.00
2018-05-06T10:56:33.066Z,26.50
2018-05-06T10:59:01.292Z,26.50
2018-05-06T11:01:29.532Z,27.10
2018-05-06T11:03:57.053Z,27.10
2018-05-06T11:06:25.233Z,27.30
2018-05-06T11:08:52.705Z,27.30
2018-05-06T11:11:20.177Z,27.30
2018-05-06T11:13:47.674Z,26.60
2018-05-06T11:16:15.883Z,26.00
2018-05-06T11:18:43.447Z,25.90
2018-05-06T11:21:10.972Z,25.40
2018-05-06T11:23:38.431Z,25.70
2018-05-06T11:26:05.912Z,25.10
2018-05-06T11:28:33.396Z,25.70
2018-05-06T11:31:00.844Z,26.10
2018-05-06T11:33:28.373Z,25.60
2018-05-06T11:35:55.770Z,25.70
2018-05-06T11:38:23.228Z,25.10
2018-05-06T11:40:50.716Z,25.10
2018-05-06T11:43:18.936Z,24.50
2018-05-06T11:45:46.396Z,24.40
2018-05-06T11:48:13.888Z,24.20
2018-05-06T11:50:41.384Z,24.10
2018-05-06T11:53:08.864Z,24.10
2018-05-06T11:55:36.381Z,24.60
2018-05-06T11:58:04.616Z,24.90
2018-05-06T12:00:32.094Z,24.90
2018-05-06T12:02:59.594Z,24.60
2018-05-06T12:05:27.073Z,24.20
2018-05-06T12:07:54.548Z,23.90
2018-05-06T12:10:22.001Z,23.80
2018-05-06T12:12:49.485Z,23.70
2018-05-06T12:15:16.996Z,23.50
2018-05-06T12:17:44.465Z,23.60
2018-05-06T12:20:11.920Z,24.50
2018-05-06T12:22:39.416Z,24.40
2018-05-06T12:25:07.668Z,24.40
2018-05-06T12:27:35.141Z,24.30
2018-05-06T12:30:02.611Z,23.80
2018-05-06T12:32:30.917Z,24.20
2018-05-06T12:34:58.383Z,24.20
2018-05-06T12:37:25.841Z,23.90
2018-05-06T12:39:53.321Z,23.80
2018-05-06T12:42:20.817Z,23.20
2018-05-06T12:44:48.355Z,22.80
2018-05-06T12:47:15.844Z,22.90
2018-05-06T12:49:43.314Z,22.80
2018-05-06T12:52:10.768Z,22.60
2018-05-06T12:54:38.248Z,22.90
2018-05-06T12:57:05.736Z,23.30
2018-05-06T12:59:33.985Z,22.90
2018-05-06T13:02:01.466Z,22.80
2018-05-06T13:04:28.932Z,22.90
2018-05-06T13:06:56.416Z,22.80
2018-05-06T13:09:24.682Z,23.30
2018-05-06T13:11:52.217Z,23.30
2018-05-06T13:14:19.714Z,23.20
2018-05-06T13:16:47.936Z,23.50
2018-05-06T13:19:15.440Z,23.40
2018-05-06T13:21:43.721Z,23.60
2018-05-06T13:24:12.016Z,23.70
2018-05-06T13:26:39.452Z,23.70
2018-05-06T13:29:07.667Z,23.50
2018-05-06T13:31:35.173Z,23.40
2018-05-06T13:34:03.416Z,23.20
2018-05-06T13:36:31.668Z,23.40
2018-05-06T13:38:59.144Z,23.30
2018-05-06T13:41:26.651Z,23.20
2018-05-06T13:43:54.899Z,24.50
2018-05-06T13:46:22.397Z,24.50
2018-05-06T13:48:49.852Z,24.50
2018-05-06T13:51:17.366Z,25.60
2018-05-06T13:53:44.812Z,25.30
2018-05-06T13:56:12.316Z,24.90
2018-05-06T13:58:39.781Z,24.80
2018-05-06T14:01:07.387Z,24.40
2018-05-06T14:03:34.863Z,24.50
2018-05-06T14:06:02.321Z,24.80
2018-05-06T14:08:29.801Z,24.90
2018-05-06T14:10:58.033Z,24.00
2018-05-06T14:13:25.584Z,23.90
2018-05-06T14:15:53.073Z,24.10
2018-05-06T14:18:20.553Z,24.10
2018-05-06T14:20:48.796Z,23.80
2018-05-06T14:23:16.280Z,23.80
2018-05-06T14:25:43.740Z,24.10
2018-05-06T14:28:11.991Z,24.10
2018-05-06T14:30:39.472Z,24.00
2018-05-06T14:33:07.706Z,24.10
2018-05-06T14:35:35.180Z,24.00
2018-05-06T14:38:02.681Z,24.20
2018-05-06T14:40:30.199Z,24.80
2018-05-06T14:42:57.675Z,25.40
2018-05-06T14:45:25.936Z,26.90
2018-05-06T14:48:05.206Z,26.90
2018-05-06T14:50:32.685Z,27.80
2018-05-06T14:53:00.152Z,28.50
2018-05-06T14:55:27.640Z,28.90
2018-05-06T14:57:55.645Z,29.90
2018-05-06T15:00:23.147Z,30.40
2018-05-06T15:02:50.607Z,30.00
2018-05-06T15:05:18.113Z,30.50
2018-05-06T15:07:45.596Z,31.40
2018-05-06T15:10:13.070Z,31.50
2018-05-06T15:12:40.555Z,32.50
2018-05-06T15:15:08.022Z,32.90
2018-05-06T15:17:35.768Z,32.90
2018-05-06T15:20:03.236Z,33.00
2018-05-06T15:22:30.708Z,33.30
2018-05-06T15:24:58.193Z,33.80
2018-05-06T15:27:25.681Z,34.20
2018-05-06T15:29:53.144Z,34.40
2018-05-06T15:32:20.604Z,34.70
2018-05-06T15:34:48.080Z,34.80
2018-05-06T15:37:15.544Z,35.00
2018-05-06T15:39:43.792Z,35.90
2018-05-06T15:42:12.022Z,35.90
2018-05-06T15:44:39.523Z,35.80
2018-05-06T15:47:07.000Z,36.30
2018-05-06T15:49:34.458Z,36.10
2018-05-06T15:52:01.953Z,36.60
2018-05-06T15:54:29.408Z,36.60
2018-05-06T15:56:56.916Z,36.60
2018-05-06T15:59:24.395Z,36.60
2018-05-06T16:02:04.452Z,36.90
2018-05-06T16:04:31.936Z,36.90
2018-05-06T16:06:59.417Z,37.00
2018-05-06T16:09:26.876Z,37.50
2018-05-06T16:11:55.161Z,38.30
2018-05-06T16:14:22.609Z,37.60
2018-05-06T16:16:50.067Z,37.70
2018-05-06T16:19:17.553Z,37.90
2018-05-06T16:21:45.039Z,37.80
2018-05-06T16:24:13.288Z,38.20
2018-05-06T16:26:40.750Z,38.10
2018-05-06T16:29:08.228Z,38.80
2018-05-06T16:31:36.444Z,38.70
2018-05-06T16:34:03.936Z,38.60
2018-05-06T16:36:31.393Z,39.10
2018-05-06T16:38:58.872Z,38.90
2018-05-06T16:41:27.109Z,39.10
2018-05-06T16:43:54.560Z,39.10
2018-05-06T16:46:22.044Z,39.40
2018-05-06T16:48:49.499Z,39.50
2018-05-06T16:51:16.976Z,39.60
2018-05-06T16:53:45.200Z,39.50
2018-05-06T16:56:12.706Z,39.50
2018-05-06T16:58:40.928Z,41.10
2018-05-06T17:01:08.421Z,41.10
2018-05-06T17:03:35.886Z,41.30
2018-05-06T17:06:03.360Z,41.10
2018-05-06T17:08:31.612Z,42.10
2018-05-06T17:10:59.073Z,42.10
2018-05-06T17:13:26.557Z,42.40
2018-05-06T17:15:54.036Z,42.90
2018-05-06T17:18:21.512Z,42.70
2018-05-06T17:20:48.994Z,43.00
2018-05-06T17:23:16.460Z,43.40
2018-05-06T17:25:44.684Z,43.60
2018-05-06T17:28:12.193Z,43.60
2018-05-06T17:30:39.674Z,43.30
2018-05-06T17:33:07.157Z,43.60
2018-05-06T17:35:34.621Z,43.70
2018-05-06T17:38:02.103Z,44.20
2018-05-06T17:40:29.580Z,44.20
2018-05-06T17:42:57.088Z,44.20
2018-05-06T17:45:24.631Z,44.30
2018-05-06T17:47:52.079Z,44.70
2018-05-06T17:50:19.565Z,45.20
2018-05-06T17:52:47.036Z,45.70
2018-05-06T17:55:14.523Z,46.00
2018-05-06T17:57:42.951Z,46.70
2018-05-06T18:00:10.417Z,46.70
2018-05-06T18:02:37.875Z,47.40
2018-05-06T18:05:05.365Z,47.60
2018-05-06T18:07:32.899Z,48.20
2018-05-06T18:10:00.343Z,48.60
2018-05-06T18:12:27.820Z,49.50
2018-05-06T18:14:55.310Z,50.00
2018-05-06T18:17:22.766Z,50.10
2018-05-06T18:19:50.273Z,50.00
2018-05-06T18:22:17.731Z,50.60
2018-05-06T18:24:45.265Z,50.60
2018-05-06T18:27:12.669Z,50.50
2018-05-06T18:29:40.120Z,51.10
2018-05-06T18:32:07.648Z,52.50
2018-05-06T18:34:35.053Z,53.50
2018-05-06T18:37:02.537Z,53.50
2018-05-06T18:39:30.761Z,53.30
2018-05-06T18:41:58.215Z,53.30
2018-05-06T18:44:26.464Z,52.90
2018-05-06T18:46:54.007Z,52.90
2018-05-06T18:49:21.419Z,53.30
2018-05-06T18:51:48.876Z,53.70
2018-05-06T18:54:17.136Z,54.80
2018-05-06T18:56:44.605Z,54.80
2018-05-06T18:59:12.072Z,55.10
2018-05-06T19:01:39.541Z,55.90
2018-05-06T19:04:07.027Z,56.20
2018-05-06T19:06:35.260Z,56.80
2018-05-06T19:09:02.761Z,56.80
2018-05-06T19:11:30.220Z,57.00
2018-05-06T19:13:57.676Z,56.90
2018-05-06T19:16:25.239Z,57.60
2018-05-06T19:18:52.636Z,58.00
2018-05-06T19:21:20.087Z,58.30
2018-05-06T19:23:47.553Z,58.40
2018-05-06T19:26:15.055Z,58.90
2018-05-06T19:28:43.297Z,59.50
2018-05-06T19:31:10.769Z,59.50
2018-05-06T19:33:38.273Z,59.70
2018-05-06T19:36:05.783Z,59.60
2018-05-06T19:38:33.240Z,59.70
2018-05-06T19:41:00.728Z,59.80
2018-05-06T19:43:28.184Z,60.20
2018-05-06T19:45:55.645Z,60.70
2018-05-06T19:48:24.084Z,60.80
2018-05-06T19:50:51.545Z,61.10
2018-05-06T19:53:19.031Z,61.10
2018-05-06T19:55:46.477Z,61.70
2018-05-06T19:58:14.725Z,62.10
2018-05-06T20:00:42.227Z,62.00
2018-05-06T20:03:09.691Z,62.20
2018-05-06T20:05:37.156Z,62.50
2018-05-06T20:08:04.646Z,62.70
2018-05-06T20:10:32.101Z,63.40
2018-05-06T20:12:59.582Z,63.90
2018-05-06T20:15:27.048Z,64.20
2018-05-06T20:17:55.294Z,64.30
2018-05-06T20:20:22.772Z,64.30
2018-05-06T20:22:50.244Z,64.40
2018-05-06T20:25:18.467Z,65.00
2018-05-06T20:27:45.952Z,65.10
2018-05-06T20:30:14.225Z,65.60
2018-05-06T20:32:41.681Z,65.50
2018-05-06T20:35:09.916Z,66.30
2018-05-06T20:37:37.416Z,65.60
2018-05-06T20:40:04.886Z,65.90
2018-05-06T20:42:32.383Z,66.60
2018-05-06T20:44:59.844Z,66.80
2018-05-06T20:47:27.311Z,67.40
2018-05-06T20:49:54.812Z,66.80
2018-05-06T20:52:22.331Z,66.80
2018-05-06T20:54:49.800Z,67.50
2018-05-06T20:57:18.008Z,67.80
2018-05-06T20:59:47.581Z,68.00
2018-05-06T21:02:15.037Z,68.10
2018-05-06T21:04:42.540Z,68.40
2018-05-06T21:07:10.854Z,69.60
2018-05-06T21:09:41.008Z,69.60
2018-05-06T21:12:08.482Z,69.60
2018-05-06T21:14:35.920Z,69.80
2018-05-06T21:17:03.400Z,70.00
2018-05-06T21:19:31.640Z,70.50
2018-05-06T21:21:59.140Z,70.50
2018-05-06T21:24:27.411Z,70.90
2018-05-06T21:26:57.236Z,70.90
2018-05-06T21:29:26.997Z,71.30
2018-05-06T21:31:54.457Z,71.20
2018-05-06T21:34:21.932Z,71.60
2018-05-06T21:36:49.421Z,71.70
2018-05-06T21:39:17.624Z,72.70
2018-05-06T21:41:45.105Z,72.20
2018-05-06T21:44:12.560Z,72.50
2018-05-06T21:46:40.044Z,72.70
2018-05-06T21:49:08.274Z,72.80
2018-05-06T21:51:36.551Z,72.90
2018-05-06T21:54:04.017Z,72.90
2018-05-06T21:56:31.464Z,72.90
2018-05-06T21:59:00.569Z,72.90
2018-05-06T22:01:28.040Z,73.20
2018-05-06T22:03:55.496Z,73.30
2018-05-06T22:06:22.996Z,73.40
2018-05-06T22:08:50.547Z,73.30
2018-05-06T22:11:18.008Z,73.60
2018-05-06T22:13:46.249Z,73.80
2018-05-06T22:16:13.816Z,73.80
2018-05-06T22:18:41.264Z,74.00
2018-05-06T22:21:08.928Z,74.20
2018-05-06T22:23:36.399Z,74.60
2018-05-06T22:26:03.890Z,74.60
2018-05-06T22:28:31.381Z,74.80
2018-05-06T22:30:58.848Z,75.00
2018-05-06T22:33:26.304Z,75.10
2018-05-06T22:35:54.544Z,75.40
2018-05-06T22:38:22.033Z,75.40
2018-05-06T22:40:49.504Z,75.50
2018-05-06T22:43:16.998Z,75.70
2018-05-06T22:45:45.283Z,76.20
2018-05-06T22:48:12.785Z,76.10
2018-05-06T22:50:40.260Z,76.30
2018-05-06T22:53:07.746Z,76.40
2018-05-06T22:55:35.252Z,76.50
2018-05-06T22:58:02.708Z,76.70
2018-05-06T23:00:30.950Z,77.00
2018-05-06T23:02:58.446Z,76.90
2018-05-06T23:05:25.987Z,76.90
2018-05-06T23:07:53.447Z,77.30
2018-05-06T23:10:20.941Z,78.20
2018-05-06T23:12:48.395Z,77.70
2018-05-06T23:15:15.856Z,78.00
2018-05-06T23:17:43.333Z,78.00
2018-05-06T23:20:11.564Z,78.10
2018-05-06T23:22:39.048Z,78.10
2018-05-06T23:25:06.522Z,78.30
2018-05-06T23:27:33.988Z,78.40
2018-05-06T23:30:01.449Z,78.50
2018-05-06T23:32:28.960Z,78.60
2018-05-06T23:34:56.428Z,78.80
2018-05-06T23:37:23.891Z,78.90
2018-05-06T23:39:51.372Z,79.00
2018-05-06T23:42:18.820Z,79.00
2018-05-06T23:44:46.311Z,79.10
2018-05-06T23:47:13.885Z,79.30
2018-05-06T23:49:41.438Z,79.30
2018-05-06T23:52:08.872Z,79.50
2018-05-06T23:54:36.324Z,79.70
2018-05-06T23:57:03.800Z,79.70
2018-05-06T23:59:31.296Z,80.00
